Time;durP1;ratioP1;P1;durP2;ratioP2;P2;SDS_P1;SDS_P2;PMS_P1;PMS_P2;Temp;Humidity;BMP_temperature;BMP_pressure;BME280_temperature;BME280_humidity;BME280_pressure;Samples;Min_cycle;Max_cycle;Signal;HPM_P1;HPM_P2
2022/06/24 00:01:59;;;;;;;5.60;5.10;;;;;;;21.73;43.35;100508.03;7399605;19;20524;-68
2022/06/24 00:04:30;;;;;;;5.85;4.95;;;;;;;21.67;43.53;100509.31;7397445;19;20026;-67
2022/06/24 00:06:59;;;;;;;5.35;4.85;;;;;;;21.63;43.94;100507.84;7398580;19;20021;-67
2022/06/24 00:09:29;;;;;;;5.53;5.03;;;;;;;21.60;43.65;100510.75;7399349;19;20019;-68
2022/06/24 00:12:09;;;;;;;5.18;4.78;;;;;;;21.56;44.22;100507.44;7396579;19;20427;-67
2022/06/24 00:14:39;;;;;;;5.00;4.60;;;;;;;21.52;44.24;100511.28;7397167;19;20021;-67
2022/06/24 00:17:09;;;;;;;4.82;4.43;;;;;;;21.47;44.33;100500.03;7396859;19;20014;-67
2022/06/24 00:19:53;;;;;;;7.15;4.40;;;;;;;21.43;44.03;100507.44;7398944;19;20027;-67
2022/06/24 00:22:22;;;;;;;4.25;3.85;;;;;;;21.39;44.27;100499.75;7398907;19;20031;-67
2022/06/24 00:24:51;;;;;;;5.10;4.63;;;;;;;21.36;44.40;100495.47;7395212;19;20015;-67
2022/06/24 00:27:25;;;;;;;5.43;3.97;;;;;;;21.33;44.46;100495.69;7396248;19;20014;-67
2022/06/24 00:29:54;;;;;;;8.32;4.03;;;;;;;21.30;44.85;100503.91;7399255;19;20022;-66
2022/06/24 00:32:33;;;;;;;4.22;3.92;;;;;;;21.26;45.27;100497.94;7398377;19;20544;-66
2022/06/24 00:35:05;;;;;;;4.63;3.67;;;;;;;21.21;45.07;100496.59;7398441;19;20526;-67
2022/06/24 00:37:35;;;;;;;4.45;4.05;;;;;;;21.20;45.31;100500.22;7398418;19;20018;-67
2022/06/24 00:40:24;;;;;;;6.03;4.18;;;;;;;21.17;45.35;100501.28;7398493;19;20026;-66
2022/06/24 00:42:56;;;;;;;4.00;3.60;;;;;;;21.12;45.05;100490.91;7397596;19;20018;-67
2022/06/24 00:45:32;;;;;;;5.32;3.53;;;;;;;21.10;45.41;100495.50;7398892;19;20018;-67
2022/06/24 00:48:09;;;;;;;5.63;4.03;;;;;;;21.06;45.63;100498.50;7396925;19;20377;-67
2022/06/24 00:50:42;;;;;;;4.07;3.63;;;;;;;21.05;45.57;100496.78;7397899;19;20018;-67
2022/06/24 00:53:10;;;;;;;5.50;3.90;;;;;;;21.02;45.76;100499.69;7397201;19;20502;-66
2022/06/24 00:55:41;;;;;;;6.10;3.80;;;;;;;20.98;45.62;100494.56;7395809;19;20010;-67
2022/06/24 00:58:15;;;;;;;5.80;3.70;;;;;;;20.96;46.13;100499.13;7398343;19;20025;-67
2022/06/24 01:00:46;;;;;;;7.72;3.83;;;;;;;20.93;46.24;100501.19;7398321;19;20105;-67
2022/06/24 01:03:15;;;;;;;3.88;3.42;;;;;;;20.89;46.32;100497.88;7397363;19;20023;-67
2022/06/24 01:05:45;;;;;;;4.30;3.85;;;;;;;20.86;46.42;100499.88;7397802;19;20073;-67
2022/06/24 01:08:16;;;;;;;5.65;3.97;;;;;;;20.79;46.59;100494.97;7395394;19;20488;-67
2022/06/24 01:10:50;;;;;;;4.18;3.63;;;;;;;20.76;46.57;100502.31;7395364;19;20516;-67
2022/06/24 01:13:23;;;;;;;4.88;3.67;;;;;;;20.72;46.92;100500.84;7397790;19;20014;-67
2022/06/24 01:15:53;;;;;;;6.10;3.87;;;;;;;20.67;46.76;100493.97;7397274;19;20507;-67
2022/06/24 01:18:21;;;;;;;5.57;4.10;;;;;;;20.63;46.95;100496.94;7395429;19;20444;-67
2022/06/24 01:20:50;;;;;;;3.83;3.53;;;;;;;20.60;47.17;100498.00;7397450;19;20014;-67
2022/06/24 01:23:27;;;;;;;5.38;4.20;;;;;;;20.57;47.50;100498.22;7396552;19;20014;-67
2022/06/24 01:25:56;;;;;;;5.18;4.30;;;;;;;20.53;47.45;100495.88;7397355;19;20017;-67
2022/06/24 01:28:24;;;;;;;4.13;3.80;;;;;;;20.47;47.53;100486.47;7395412;19;20078;-68
2022/06/24 01:30:53;;;;;;;4.40;3.70;;;;;;;20.40;47.96;100487.84;7396521;19;20375;-67
2022/06/24 01:33:21;;;;;;;4.10;3.72;;;;;;;20.34;48.06;100483.78;7396224;19;20082;-67
2022/06/24 01:35:49;;;;;;;5.05;3.65;;;;;;;20.29;48.23;100494.72;7396320;19;20414;-67
2022/06/24 01:38:18;;;;;;;7.47;3.90;;;;;;;20.24;48.48;100480.03;7394273;19;20086;-67
2022/06/24 01:40:49;;;;;;;4.95;3.90;;;;;;;20.20;48.38;100481.19;7396999;19;20035;-68
2022/06/24 01:43:17;;;;;;;6.93;3.92;;;;;;;20.16;48.88;100483.19;7395454;19;20022;-68
2022/06/24 01:45:46;;;;;;;4.82;3.75;;;;;;;20.12;48.73;100479.88;7397139;19;20018;-67
2022/06/24 01:48:14;;;;;;;3.80;3.50;;;;;;;20.10;48.92;100480.94;7394665;19;20423;-67
2022/06/24 01:50:43;;;;;;;5.78;3.67;;;;;;;20.04;49.22;100473.34;7396485;19;20074;-67
2022/06/24 01:53:11;;;;;;;5.53;4.45;;;;;;;19.98;49.46;100478.13;7395719;19;20019;-67
2022/06/24 01:55:40;;;;;;;6.00;4.32;;;;;;;19.93;49.84;100477.59;7394718;19;20028;-67
2022/06/24 01:58:11;;;;;;;5.50;4.68;;;;;;;19.88;50.23;100479.69;7395756;19;20018;-67
2022/06/24 02:00:39;;;;;;;5.03;4.60;;;;;;;19.81;50.30;100481.00;7394803;19;20040;-67
2022/06/24 02:03:08;;;;;;;5.20;4.68;;;;;;;19.75;50.50;100478.75;7395494;19;20039;-67
2022/06/24 02:05:37;;;;;;;5.88;5.28;;;;;;;19.68;50.96;100479.13;7394376;19;20026;-67
2022/06/24 02:08:06;;;;;;;5.07;4.57;;;;;;;19.62;50.92;100481.34;7395747;19;20035;-67
2022/06/24 02:13:30;;;;;;;5.40;4.90;;;;;;;19.47;51.26;100485.81;7395048;19;20015;-67
2022/06/24 02:16:00;;;;;;;5.87;5.33;;;;;;;19.42;51.60;100482.59;7396541;19;20022;-69
2022/06/24 02:18:30;;;;;;;5.85;4.85;;;;;;;19.37;51.50;100491.72;7395072;19;20832;-68
2022/06/24 02:21:00;;;;;;;7.65;5.95;;;;;;;19.33;51.47;100489.34;7395479;19;20082;-68
2022/06/24 02:23:30;;;;;;;7.78;5.72;;;;;;;19.25;51.90;100489.00;7394792;19;20018;-68
2022/06/24 02:25:59;;;;;;;6.15;5.55;;;;;;;19.23;52.28;100488.22;7393623;19;20029;-68
2022/06/24 02:28:30;;;;;;;7.68;5.45;;;;;;;19.17;52.43;100492.09;7393435;19;20380;-68
2022/06/24 02:31:02;;;;;;;7.25;6.15;;;;;;;19.09;52.62;100484.59;7395276;19;20022;-68
2022/06/24 02:33:31;;;;;;;7.38;5.97;;;;;;;19.03;52.84;100485.84;7393307;19;20023;-68
2022/06/24 02:36:00;;;;;;;7.32;6.43;;;;;;;18.99;52.96;100484.34;7396761;19;20019;-68
2022/06/24 02:38:29;;;;;;;6.30;5.70;;;;;;;18.97;53.06;100482.69;7394410;19;20367;-68
2022/06/24 02:40:58;;;;;;;7.00;6.40;;;;;;;18.91;53.12;100478.63;7394430;19;20035;-68
2022/06/24 02:43:32;;;;;;;6.68;5.78;;;;;;;18.87;53.09;100485.03;7393688;19;20043;-68
2022/06/24 02:46:02;;;;;;;6.13;5.53;;;;;;;18.83;53.43;100491.47;7394216;19;20499;-68
2022/06/24 02:48:31;;;;;;;6.95;5.95;;;;;;;18.78;53.42;100480.28;7395171;19;20491;-67
2022/06/24 02:51:02;;;;;;;5.95;5.38;;;;;;;18.76;54.04;100474.22;7402378;19;20015;-67
2022/06/24 02:53:32;;;;;;;5.70;5.10;;;;;;;18.72;53.70;100481.50;7400940;19;20422;-68
2022/06/24 02:56:01;;;;;;;5.75;5.15;;;;;;;18.69;54.09;100473.72;7398679;19;20015;-68
2022/06/24 02:58:33;;;;;;;5.38;4.93;;;;;;;18.65;54.10;100480.16;7402036;19;20027;-68
2022/06/24 03:01:09;;;;;;;7.43;5.32;;;;;;;18.64;54.08;100481.09;7399637;19;20019;-67
2022/06/24 03:03:37;;;;;;;5.10;4.70;;;;;;;18.63;54.48;100479.41;7400211;19;20021;-68
2022/06/24 03:06:07;;;;;;;5.65;5.15;;;;;;;18.60;54.65;100483.06;7401510;19;20513;-68
2022/06/24 03:08:36;;;;;;;5.75;4.85;;;;;;;18.59;54.55;100473.44;7399165;19;20473;-68
2022/06/24 03:11:04;;;;;;;8.07;4.88;;;;;;;18.59;54.99;100473.44;7401793;19;20014;-68
2022/06/24 03:13:36;;;;;;;7.43;5.22;;;;;;;18.56;54.63;100473.59;7399922;19;20501;-68
2022/06/24 03:16:04;;;;;;;6.63;5.95;;;;;;;18.55;54.73;100471.88;7401100;19;20549;-67
2022/06/24 03:18:32;;;;;;;7.03;5.40;;;;;;;18.52;54.87;100472.91;7398448;19;20018;-67
2022/06/24 03:21:01;;;;;;;5.68;4.78;;;;;;;18.51;55.47;100459.72;7401411;19;20031;-67
2022/06/24 03:23:30;;;;;;;9.02;5.95;;;;;;;18.47;55.37;100460.88;7399066;19;20015;-68
2022/06/24 03:25:58;;;;;;;6.60;5.43;;;;;;;18.46;55.38;100464.47;7398529;19;20021;-67
2022/06/24 03:28:27;;;;;;;5.40;4.90;;;;;;;18.43;55.46;100462.00;7399061;19;20089;-67
2022/06/24 03:30:58;;;;;;;6.57;5.55;;;;;;;18.42;55.76;100466.44;7400989;19;20073;-67
2022/06/24 03:33:26;;;;;;;5.40;4.97;;;;;;;18.40;55.87;100463.88;7399809;19;20026;-67
2022/06/24 03:35:55;;;;;;;9.63;5.28;;;;;;;18.38;56.02;100462.25;7398059;19;20022;-67
2022/06/24 03:38:23;;;;;;;6.93;5.95;;;;;;;18.37;56.21;100464.06;7397743;19;20014;-68
2022/06/24 03:40:51;;;;;;;10.35;5.43;;;;;;;18.35;55.96;100465.97;7399505;19;20365;-67
2022/06/24 03:43:20;;;;;;;8.00;5.80;;;;;;;18.35;56.49;100465.97;7398841;19;20418;-67
2022/06/24 03:45:48;;;;;;;6.38;5.03;;;;;;;18.34;56.21;100463.41;7400159;19;20504;-67
2022/06/24 03:48:19;;;;;;;8.52;5.18;;;;;;;18.35;56.59;100465.97;7399101;19;20011;-69
2022/06/24 03:50:48;;;;;;;10.45;4.80;;;;;;;18.37;56.59;100453.47;7400414;19;20035;-69
2022/06/24 03:53:16;;;;;;;9.63;6.10;;;;;;;18.38;56.47;100457.78;7397745;19;20081;-67
2022/06/24 03:55:50;;;;;;;5.93;5.13;;;;;;;18.42;56.54;100457.63;7396987;19;20010;-68
2022/06/24 03:58:19;;;;;;;5.07;4.53;;;;;;;18.45;56.54;100460.97;7397619;19;20032;-67
2022/06/24 04:01:02;;;;;;;6.40;5.30;;;;;;;18.48;56.58;100459.94;7397194;19;20022;-67
2022/06/24 04:03:33;;;;;;;5.22;4.10;;;;;;;18.50;56.49;100461.53;7398775;19;20032;-67
2022/06/24 04:06:01;;;;;;;5.70;4.10;;;;;;;18.54;56.43;100454.25;7397489;19;20074;-67
2022/06/24 04:08:30;;;;;;;5.13;4.20;;;;;;;18.58;56.70;100463.75;7397418;19;20026;-67
2022/06/24 04:10:58;;;;;;;4.47;4.07;;;;;;;18.59;56.25;100464.59;7399120;19;20026;-68
2022/06/24 04:13:27;;;;;;;6.05;3.97;;;;;;;18.63;56.26;100466.97;7398266;19;20022;-68
2022/06/24 04:15:56;;;;;;;8.60;4.75;;;;;;;18.68;56.56;100472.03;7399388;19;20020;-68
2022/06/24 04:18:25;;;;;;;6.55;5.80;;;;;;;18.71;56.11;100475.31;7398320;19;20019;-67
2022/06/24 04:20:56;;;;;;;6.65;5.22;;;;;;;18.76;56.72;100475.06;7398616;19;20086;-67
2022/06/24 04:23:24;;;;;;;11.18;7.60;;;;;;;18.80;56.55;100471.25;7396415;19;20556;-66
2022/06/24 04:25:53;;;;;;;11.13;6.40;;;;;;;18.86;56.17;100467.38;7399016;19;20018;-67
2022/06/24 04:28:21;;;;;;;7.60;4.57;;;;;;;18.90;56.48;100463.63;7395775;19;20372;-67
2022/06/24 04:30:50;;;;;;;6.65;4.30;;;;;;;18.94;56.03;100465.13;7397867;19;20484;-66
2022/06/24 04:33:18;;;;;;;5.53;3.80;;;;;;;19.01;56.24;100457.66;7396138;19;20018;-66
2022/06/24 04:35:48;;;;;;;7.75;4.03;;;;;;;19.07;56.20;100457.28;7397872;19;20094;-67
2022/06/24 04:38:19;;;;;;;4.30;3.90;;;;;;;19.12;56.50;100459.63;7396163;19;20014;-67
2022/06/24 04:40:48;;;;;;;5.55;3.70;;;;;;;19.16;56.13;100464.66;7395709;19;20014;-68
2022/06/24 04:43:16;;;;;;;4.10;3.58;;;;;;;19.21;56.22;100459.91;7397469;19;20022;-68
2022/06/24 04:45:46;;;;;;;9.23;5.38;;;;;;;19.27;56.53;100458.69;7397554;19;20026;-67
2022/06/24 04:48:15;;;;;;;5.60;3.95;;;;;;;19.34;56.44;100457.34;7395396;19;20074;-67
2022/06/24 04:50:44;;;;;;;6.65;3.60;;;;;;;19.41;56.08;100462.28;7397381;19;20488;-68
2022/06/24 04:53:12;;;;;;;5.80;3.70;;;;;;;19.47;56.45;100464.53;7396431;19;20035;-68
2022/06/24 04:55:43;;;;;;;5.63;4.10;;;;;;;19.54;56.41;100463.22;7395023;19;20015;-68
2022/06/24 04:58:12;;;;;;;6.60;4.72;;;;;;;19.62;56.13;100458.22;7396464;19;20491;-67
2022/06/24 05:00:41;;;;;;;5.50;3.88;;;;;;;19.68;56.29;100457.84;7394634;19;20079;-66
2022/06/24 05:03:09;;;;;;;6.53;3.92;;;;;;;19.77;55.71;100458.22;7396288;19;20018;-66
2022/06/24 05:05:38;;;;;;;5.63;3.42;;;;;;;19.85;55.97;100445.28;7395074;19;20022;-67
2022/06/24 05:08:07;;;;;;;9.40;3.80;;;;;;;19.92;55.79;100451.91;7394686;19;20035;-67
2022/06/24 05:10:35;;;;;;;5.72;3.70;;;;;;;20.00;55.93;100451.41;7396050;19;20015;-67
2022/06/24 05:13:06;;;;;;;4.07;3.60;;;;;;;20.07;55.29;100446.50;7395028;19;20395;-69
2022/06/24 05:15:35;;;;;;;4.43;4.03;;;;;;;20.15;55.54;100445.03;7394692;19;20086;-69
2022/06/24 05:18:25;;;;;;;5.90;3.58;;;;;;;20.24;55.27;100438.25;7396160;19;20024;-69
2022/06/24 05:20:54;;;;;;;6.45;3.30;;;;;;;20.31;55.05;100441.38;7394910;19;20011;-69
2022/06/24 05:23:22;;;;;;;10.23;3.95;;;;;;;20.40;55.18;100439.91;7395274;19;20090;-69
2022/06/24 05:25:51;;;;;;;7.40;3.63;;;;;;;20.49;54.93;100448.09;7395947;19;20014;-69
2022/06/24 05:28:22;;;;;;;4.65;3.40;;;;;;;20.58;54.89;100441.28;7395498;19;20019;-68
2022/06/24 05:30:57;;;;;;;5.22;2.78;;;;;;;20.68;53.99;100442.34;7396440;19;20022;-69
2022/06/24 05:33:26;;;;;;;3.10;2.60;;;;;;;20.80;53.29;100439.81;7394577;19;20086;-69
2022/06/24 05:35:55;;;;;;;4.00;2.90;;;;;;;20.92;53.28;100432.81;7395589;19;20030;-68
2022/06/24 05:38:25;;;;;;;5.40;3.05;;;;;;;21.02;53.04;100428.53;7395682;19;20020;-68
2022/06/24 05:40:54;;;;;;;5.85;3.72;;;;;;;21.13;52.56;100425.09;7396140;19;20077;-69
2022/06/24 05:43:25;;;;;;;7.45;2.85;;;;;;;21.22;52.43;100427.09;7394822;19;20018;-68
2022/06/24 05:45:53;;;;;;;4.38;3.20;;;;;;;21.33;52.06;100423.66;7394790;19;20010;-68
2022/06/24 05:48:22;;;;;;;5.90;2.80;;;;;;;21.43;51.44;100416.72;7396201;19;20031;-68
2022/06/24 05:50:50;;;;;;;3.70;3.10;;;;;;;21.54;51.15;100420.41;7393927;19;20014;-68
2022/06/24 05:56:10;;;;;;;5.57;2.45;;;;;;;21.76;50.89;100417.03;7394696;19;20042;-70
2022/06/24 05:58:47;;;;;;;4.22;2.58;;;;;;;21.88;50.25;100423.28;7394302;19;20404;-69
2022/06/24 06:01:16;;;;;;;4.78;2.28;;;;;;;21.97;50.50;100415.41;7394562;19;20019;-69
2022/06/24 06:03:44;;;;;;;4.40;2.60;;;;;;;22.08;49.99;100413.78;7394760;19;20495;-70
2022/06/24 06:06:13;;;;;;;14.18;3.78;;;;;;;22.18;49.47;100411.25;7394324;19;20022;-69
2022/06/24 06:08:41;;;;;;;5.78;2.55;;;;;;;22.27;48.92;100410.56;7394801;19;20018;-69
2022/06/24 06:11:14;;;;;;;4.18;2.95;;;;;;;22.35;49.35;100404.63;7395062;19;20018;-69
2022/06/24 06:13:43;;;;;;;4.72;3.00;;;;;;;22.45;48.81;100405.63;7393403;19;20025;-69
2022/06/24 06:16:15;;;;;;;6.25;2.80;;;;;;;22.57;48.91;100404.69;7395188;19;20022;-68
2022/06/24 06:18:43;;;;;;;5.30;2.55;;;;;;;22.66;48.75;100402.25;7395702;19;20011;-68
2022/06/24 06:21:14;;;;;;;4.93;3.10;;;;;;;22.76;48.19;100397.88;7395282;19;20014;-68
2022/06/24 06:23:43;;;;;;;7.05;3.08;;;;;;;22.85;47.59;100405.19;7392346;19;20082;-69
2022/06/24 06:26:12;;;;;;;4.80;2.55;;;;;;;22.93;47.51;100399.25;7394511;19;20018;-69
2022/06/24 06:28:42;;;;;;;3.70;2.67;;;;;;;23.01;47.05;100398.63;7393268;19;20025;-69
2022/06/24 06:31:13;;;;;;;6.45;2.67;;;;;;;23.11;47.19;100399.59;7394948;19;20024;-69
2022/06/24 06:33:42;;;;;;;4.05;2.53;;;;;;;23.17;46.82;100398.28;7392610;19;20504;-69
2022/06/24 06:36:12;;;;;;;5.80;2.70;;;;;;;23.25;47.09;100396.69;7394256;19;20019;-69
2022/06/24 06:38:41;;;;;;;3.22;2.55;;;;;;;23.33;46.47;100401.44;7393791;19;20505;-69
2022/06/24 06:41:10;;;;;;;3.63;2.15;;;;;;;23.41;46.35;100396.28;7394133;19;20023;-69
2022/06/24 06:43:38;;;;;;;4.22;2.60;;;;;;;23.49;46.24;100392.97;7393636;19;20040;-69
2022/06/24 06:46:10;;;;;;;4.93;2.50;;;;;;;23.57;45.57;100393.22;7393998;19;20480;-69
2022/06/24 06:48:42;;;;;;;4.57;3.03;;;;;;;23.65;45.28;100386.38;7393355;19;20022;-69
2022/06/24 06:51:10;;;;;;;6.70;2.58;;;;;;;23.73;44.96;100383.91;7394777;19;20015;-69
2022/06/24 06:53:39;;;;;;;6.18;2.60;;;;;;;23.82;44.98;100384.97;7392793;19;20445;-69
2022/06/24 06:56:07;;;;;;;3.10;2.45;;;;;;;23.90;44.88;100380.66;7390813;19;20368;-71
2022/06/24 06:58:36;;;;;;;12.57;3.05;;;;;;;23.97;44.64;100372.97;7393651;19;20383;-70
2022/06/24 07:01:04;;;;;;;4.88;2.58;;;;;;;24.08;44.11;100372.09;7393606;19;20027;-69
2022/06/24 07:03:33;;;;;;;3.85;2.55;;;;;;;24.14;44.17;100370.69;7392577;19;20513;-69
2022/06/24 07:06:05;;;;;;;4.03;2.40;;;;;;;24.22;43.60;100368.22;7393461;19;20021;-67
2022/06/24 07:08:33;;;;;;;5.10;2.60;;;;;;;24.29;43.79;100360.50;7391475;19;20015;-67
2022/06/24 07:11:02;;;;;;;2.88;2.45;;;;;;;24.37;42.98;100371.44;7391387;19;20011;-67
2022/06/24 07:13:30;;;;;;;3.78;2.47;;;;;;;24.43;43.21;100370.03;7392687;19;20082;-69
2022/06/24 07:15:59;;;;;;;4.00;2.38;;;;;;;24.49;42.88;100364.16;7393443;19;20032;-68
2022/06/24 07:18:27;;;;;;;4.93;2.40;;;;;;;24.54;42.21;100362.78;7393331;19;20036;-69
2022/06/24 07:20:56;;;;;;;4.35;2.25;;;;;;;24.62;42.26;100363.94;7393245;19;20021;-69
2022/06/24 07:23:27;;;;;;;6.43;2.88;;;;;;;24.70;42.09;100356.09;7392343;19;20022;-70
2022/06/24 07:25:58;;;;;;;3.97;2.53;;;;;;;24.78;41.16;100345.56;7391684;19;20165;-67
2022/06/24 07:28:27;;;;;;;3.75;2.17;;;;;;;24.82;41.34;100340.75;7393300;19;20083;-67
2022/06/24 07:30:56;;;;;;;5.88;2.42;;;;;;;24.92;41.24;100349.72;7390879;19;20014;-67
2022/06/24 07:33:25;;;;;;;6.25;2.53;;;;;;;24.99;41.26;100337.41;7390811;19;20022;-67
2022/06/24 07:35:53;;;;;;;3.72;2.38;;;;;;;25.07;40.84;100342.09;7399720;19;20015;-67
2022/06/24 07:38:22;;;;;;;5.57;2.28;;;;;;;25.15;40.52;100339.59;7397607;19;20035;-67
2022/06/24 07:40:55;;;;;;;2.55;2.30;;;;;;;25.22;40.46;100331.81;7399807;19;20022;-67
2022/06/24 07:43:23;;;;;;;5.47;2.78;;;;;;;25.28;40.16;100331.28;7398617;19;20485;-69
2022/06/24 07:45:53;;;;;;;5.32;3.08;;;;;;;25.36;39.69;100319.84;7396886;19;20040;-69
2022/06/24 07:48:22;;;;;;;4.10;2.05;;;;;;;25.44;39.67;100328.06;7399699;19;20018;-69
2022/06/24 07:50:51;;;;;;;5.45;2.25;;;;;;;25.50;39.82;100321.28;7397571;19;20019;-69
2022/06/24 07:53:19;;;;;;;5.00;2.92;;;;;;;25.55;39.32;100320.88;7399011;19;20035;-69
2022/06/24 07:58:45;;;;;;;3.55;2.40;;;;;;;25.69;38.95;100312.38;7397285;19;20014;-69
2022/06/24 08:01:13;;;;;;;4.15;2.72;;;;;;;25.77;39.05;100309.84;7397884;19;20073;-70
2022/06/24 08:03:42;;;;;;;3.28;2.35;;;;;;;25.85;38.20;100315.31;7398547;19;20135;-68
2022/06/24 08:06:10;;;;;;;3.35;3.05;;;;;;;25.92;37.66;100309.38;7397080;19;20039;-69
2022/06/24 08:08:39;;;;;;;5.57;2.35;;;;;;;25.98;37.83;100309.66;7398642;19;20376;-69
2022/06/24 08:11:07;;;;;;;4.10;2.40;;;;;;;26.06;37.16;100310.78;7397129;19;20018;-69
2022/06/24 08:13:36;;;;;;;3.53;2.25;;;;;;;26.12;37.00;100316.47;7398271;19;20022;-69
2022/06/24 08:16:07;;;;;;;9.02;2.58;;;;;;;26.20;36.49;100302.28;7399410;19;20035;-69
2022/06/24 08:18:36;;;;;;;5.00;2.20;;;;;;;26.27;36.66;100303.38;7398936;19;20432;-68
2022/06/24 08:21:04;;;;;;;3.90;2.00;;;;;;;26.32;36.48;100294.88;7398835;19;20027;-68
2022/06/24 08:23:33;;;;;;;6.18;2.90;;;;;;;26.38;35.82;100294.28;7396196;19;20026;-69
2022/06/24 08:26:01;;;;;;;3.97;2.10;;;;;;;26.42;35.61;100295.69;7398265;19;20588;-69
2022/06/24 08:28:29;;;;;;;5.15;2.22;;;;;;;26.51;35.27;100296.66;7395724;19;20015;-69
2022/06/24 08:30:58;;;;;;;2.92;2.08;;;;;;;26.59;35.53;100291.38;7396214;19;20421;-69
2022/06/24 08:33:29;;;;;;;4.18;2.30;;;;;;;26.66;35.23;100286.25;7395514;19;20033;-70
2022/06/24 08:35:58;;;;;;;5.28;2.30;;;;;;;26.73;35.34;100292.75;7398394;19;20078;-69
2022/06/24 08:38:26;;;;;;;5.82;2.80;;;;;;;26.77;35.02;100288.75;7397827;19;20015;-69
2022/06/24 08:40:57;;;;;;;3.17;2.38;;;;;;;26.84;34.60;100283.63;7395816;19;20026;-70
2022/06/24 08:43:26;;;;;;;3.15;2.28;;;;;;;26.90;35.08;100280.31;7396847;19;20019;-69
2022/06/24 08:45:56;;;;;;;3.55;2.35;;;;;;;26.94;34.87;100270.13;7396741;19;20031;-70
2022/06/24 08:48:25;;;;;;;4.35;2.60;;;;;;;27.00;34.75;100272.19;7398129;19;20512;-70
2022/06/24 08:50:57;;;;;;;4.50;2.40;;;;;;;27.02;34.94;100264.84;7396192;19;20514;-70
2022/06/24 08:53:28;;;;;;;5.13;3.17;;;;;;;27.09;34.75;100268.59;7397651;19;20019;-69
2022/06/24 08:55:58;;;;;;;4.15;2.55;;;;;;;27.14;34.80;100260.91;7395629;19;20799;-69
2022/06/24 08:58:26;;;;;;;3.13;2.67;;;;;;;27.23;34.46;100260.97;7396305;19;20018;-70
2022/06/24 09:00:55;;;;;;;5.60;2.35;;;;;;;27.29;33.93;100255.00;7398195;19;20019;-70
2022/06/24 09:03:23;;;;;;;3.22;2.25;;;;;;;27.34;33.82;100238.38;7397092;19;20019;-69
2022/06/24 09:05:52;;;;;;;5.28;2.40;;;;;;;27.38;33.87;100242.44;7397498;19;20018;-70
2022/06/24 09:08:23;;;;;;;4.65;2.42;;;;;;;27.45;33.05;100246.25;7397288;19;20477;-69
2022/06/24 09:13:32;;;;;;;3.85;2.53;;;;;;;27.57;33.69;100249.53;7393388;19;20066;-70
2022/06/24 09:16:09;;;;;;;6.32;2.80;;;;;;;27.64;33.26;100247.91;7396017;19;20083;-70
2022/06/24 09:18:38;;;;;;;2.58;2.13;;;;;;;27.72;33.33;100239.88;7396556;19;20026;-70
2022/06/24 09:21:06;;;;;;;3.58;2.17;;;;;;;27.80;33.21;100239.94;7393690;19;20105;-69
2022/06/24 09:23:53;;;;;;;4.93;2.30;;;;;;;27.88;33.04;100228.38;7395673;19;20018;-70
2022/06/24 09:26:33;;;;;;;4.20;2.08;;;;;;;27.97;32.45;100231.94;7397486;19;20025;-69
2022/06/24 09:29:03;;;;;;;4.43;2.58;;;;;;;28.04;32.87;100230.31;7395074;19;20018;-70
2022/06/24 09:31:32;;;;;;;2.70;2.03;;;;;;;28.12;32.65;100229.53;7394094;19;20029;-68
2022/06/24 09:34:09;;;;;;;6.05;2.30;;;;;;;28.18;32.02;100212.72;7394561;19;20022;-69
2022/06/24 09:36:39;;;;;;;5.55;2.03;;;;;;;28.25;32.38;100212.91;7395755;19;20019;-68
2022/06/24 09:39:12;;;;;;;2.50;2.30;;;;;;;28.32;31.02;100210.41;7395665;19;20015;-69
2022/06/24 09:41:48;;;;;;;4.90;2.08;;;;;;;28.38;30.88;100212.47;7395662;19;20023;-69
2022/06/24 09:44:18;;;;;;;4.72;1.90;;;;;;;28.45;30.99;100208.94;7394187;19;20018;-69
2022/06/24 09:46:48;;;;;;;5.75;2.05;;;;;;;28.51;30.84;100198.50;7395319;19;20035;-68
2022/06/24 09:49:17;;;;;;;2.22;2.03;;;;;;;28.60;30.85;100209.16;7394560;19;20029;-68
2022/06/24 09:51:47;;;;;;;2.97;2.10;;;;;;;28.66;30.36;100196.00;7395355;19;20387;-70
2022/06/24 09:54:19;;;;;;;3.55;2.13;;;;;;;28.70;30.29;100194.69;7395077;19;20496;-69
2022/06/24 09:56:50;;;;;;;3.05;2.00;;;;;;;28.75;30.33;100195.91;7395180;19;20035;-68
2022/06/24 10:02:01;;;;;;;3.22;1.75;;;;;;;28.83;30.28;100178.06;7395225;19;20495;-69
2022/06/24 10:04:31;;;;;;;2.42;1.80;;;;;;;28.86;29.80;100181.22;7393083;19;20431;-68
2022/06/24 10:07:00;;;;;;;5.25;1.70;;;;;;;28.92;29.44;100174.34;7395686;19;20031;-69
2022/06/24 10:09:34;;;;;;;4.55;1.70;;;;;;;28.97;29.06;100171.97;7395103;19;20017;-67
2022/06/24 10:12:03;;;;;;;3.03;1.80;;;;;;;29.01;29.04;100173.31;7394509;19;20019;-68
2022/06/24 10:14:32;;;;;;;2.92;1.67;;;;;;;29.07;28.77;100169.13;7393448;19;20019;-68
2022/06/24 10:17:02;;;;;;;3.70;2.25;;;;;;;29.13;28.97;100171.16;7394810;19;20364;-69
2022/06/24 10:19:33;;;;;;;4.55;2.15;;;;;;;29.22;28.71;100172.00;7393046;19;20021;-69
2022/06/24 10:22:01;;;;;;;3.90;1.70;;;;;;;29.30;27.91;100163.06;7392581;19;20389;-68
2022/06/24 10:24:42;;;;;;;4.00;1.38;;;;;;;29.34;27.41;100165.25;7392211;19;20035;-69
2022/06/24 10:27:11;;;;;;;1.95;1.38;;;;;;;29.41;27.15;100152.75;7394396;19;20074;-68
2022/06/24 10:29:39;;;;;;;3.55;1.27;;;;;;;29.49;26.54;100160.00;7394116;19;20032;-68
2022/06/24 10:32:10;;;;;;;2.42;1.60;;;;;;;29.57;25.68;100157.28;7392523;19;20022;-69
2022/06/24 10:34:47;;;;;;;3.03;1.98;;;;;;;29.62;25.03;100154.06;7391829;19;20022;-68
2022/06/24 10:37:31;;;;;;;3.90;2.25;;;;;;;29.69;24.16;100149.66;7391787;19;20367;-69
2022/06/24 10:40:03;;;;;;;3.72;1.88;;;;;;;29.78;24.55;100138.81;7391882;19;20025;-69
2022/06/24 10:42:33;;;;;;;2.78;1.40;;;;;;;29.83;25.10;100125.63;7394322;19;20035;-70
2022/06/24 10:45:03;;;;;;;5.78;1.92;;;;;;;29.89;24.90;100135.78;7392874;19;20022;-69
2022/06/24 10:47:42;;;;;;;4.57;1.48;;;;;;;29.96;24.63;100135.91;7392808;19;20054;-70
2022/06/24 10:50:21;;;;;;;3.65;1.40;;;;;;;30.04;24.69;100131.31;7393091;19;20027;-70
2022/06/24 10:53:06;;;;;;;2.38;1.70;;;;;;;30.15;24.73;100132.78;7393000;19;20026;-70
2022/06/24 10:55:42;;;;;;;3.28;1.92;;;;;;;30.24;24.46;100125.47;7394762;19;20041;-71
2022/06/24 10:58:20;;;;;;;2.38;1.80;;;;;;;30.33;24.71;100113.59;7391870;19;20014;-71
2022/06/24 11:00:56;;;;;;;2.63;1.70;;;;;;;30.43;23.46;100126.88;7394186;19;20018;-71
2022/06/24 11:03:29;;;;;;;2.05;1.75;;;;;;;30.52;23.73;100111.47;7392893;19;20031;-69
2022/06/24 11:05:58;;;;;;;1.85;1.40;;;;;;;30.60;24.10;100121.41;7393059;19;20501;-70
2022/06/24 11:08:28;;;;;;;2.95;1.40;;;;;;;30.68;23.54;100114.03;7393825;19;20018;-69
2022/06/24 11:10:59;;;;;;;3.65;1.00;;;;;;;30.72;22.36;100103.69;7397852;19;20014;-70
2022/06/24 11:13:28;;;;;;;3.33;1.10;;;;;;;30.75;22.88;100107.91;7398588;19;20036;-69
2022/06/24 11:15:58;;;;;;;2.88;1.08;;;;;;;30.78;22.53;100104.84;7396739;19;20371;-69
2022/06/24 11:18:29;;;;;;;3.92;1.50;;;;;;;30.85;22.67;100098.53;7398700;19;20082;-69
2022/06/24 11:20:59;;;;;;;2.45;1.30;;;;;;;30.96;22.29;100105.38;7397736;19;20022;-68
2022/06/24 11:23:29;;;;;;;4.72;1.20;;;;;;;31.04;22.41;100104.47;7398706;19;20019;-69
2022/06/24 11:26:03;;;;;;;1.67;1.38;;;;;;;31.12;22.70;100109.00;7397131;19;20027;-69
2022/06/24 11:28:34;;;;;;;4.60;1.42;;;;;;;31.24;22.95;100112.97;7399296;19;20401;-69
2022/06/24 11:31:18;;;;;;;1.90;1.70;;;;;;;31.41;21.92;100099.22;7397535;19;20019;-69
2022/06/24 11:33:46;;;;;;;3.38;1.20;;;;;;;31.50;22.35;100111.66;7397448;19;20028;-68
2022/06/24 11:36:16;;;;;;;2.05;1.63;;;;;;;31.63;22.23;100100.19;7399322;19;20385;-69
2022/06/24 11:38:55;;;;;;;2.80;1.38;;;;;;;31.79;21.86;100099.16;7398987;19;20388;-68
2022/06/24 11:41:28;;;;;;;2.38;1.15;;;;;;;31.98;21.90;100098.56;7400051;19;20018;-69
2022/06/24 11:43:57;;;;;;;3.33;1.40;;;;;;;32.15;21.91;100095.63;7397039;19;20040;-68
2022/06/24 11:46:25;;;;;;;1.83;1.25;;;;;;;32.24;21.36;100080.09;7398851;19;20416;-69
2022/06/24 11:49:06;;;;;;;3.38;1.73;;;;;;;32.28;20.29;100082.25;7397883;19;20027;-69
2022/06/24 11:51:34;;;;;;;2.47;1.10;;;;;;;32.39;21.06;100082.78;7397763;19;20071;-70
2022/06/24 11:54:04;;;;;;;2.08;1.52;;;;;;;32.47;21.01;100077.22;7397985;19;20036;-69